createdAt,value
2023-05-08T00:01:34.447Z,7.04
2023-05-08T00:04:02.320Z,7.04
2023-05-08T00:06:30.893Z,7.03
2023-05-08T00:08:58.477Z,7.01
2023-05-08T00:11:26.105Z,6.99
2023-05-08T00:13:53.693Z,6.98
2023-05-08T00:16:21.860Z,6.95
2023-05-08T00:18:49.467Z,6.94
2023-05-08T00:21:17.048Z,6.92
2023-05-08T00:23:44.512Z,6.90
2023-05-08T00:26:12.161Z,6.88
2023-05-08T00:28:39.750Z,6.87
2023-05-08T00:31:07.846Z,6.86
2023-05-08T00:33:35.366Z,6.85
2023-05-08T00:36:03.861Z,6.84
2023-05-08T00:38:34.714Z,6.82
2023-05-08T00:41:02.712Z,6.82
2023-05-08T00:43:31.131Z,6.82
2023-05-08T00:46:01.018Z,6.82
2023-05-08T00:48:29.557Z,6.80
2023-05-08T00:50:57.847Z,6.80
2023-05-08T00:53:25.828Z,6.79
2023-05-08T00:55:53.357Z,6.79
2023-05-08T00:58:21.183Z,6.78
2023-05-08T01:00:49.021Z,6.78
2023-05-08T01:03:16.999Z,6.77
2023-05-08T01:05:44.614Z,6.76
2023-05-08T01:08:12.377Z,6.75
2023-05-08T01:11:11.096Z,6.74
2023-05-08T01:13:47.920Z,6.71
2023-05-08T01:16:17.782Z,6.69
2023-05-08T01:19:14.733Z,6.68
2023-05-08T01:22:00.774Z,6.65
2023-05-08T01:24:49.618Z,6.62
2023-05-08T01:27:35.364Z,6.61
2023-05-08T01:30:09.027Z,6.60
2023-05-08T01:32:42.725Z,6.60
2023-05-08T01:35:17.650Z,6.60
2023-05-08T01:37:51.846Z,6.59
2023-05-08T01:40:52.042Z,6.58
2023-05-08T01:43:39.346Z,6.57
2023-05-08T01:46:11.180Z,6.56
2023-05-08T01:48:42.240Z,6.56
2023-05-08T01:51:14.314Z,6.56
2023-05-08T01:53:43.503Z,6.56
2023-05-08T01:56:19.006Z,6.56
2023-05-08T01:58:46.685Z,6.56
2023-05-08T02:01:15.966Z,6.55
2023-05-08T02:03:43.415Z,6.55
2023-05-08T02:06:12.889Z,6.55
2023-05-08T02:08:40.371Z,6.55
2023-05-08T02:11:08.029Z,6.55
2023-05-08T02:13:36.266Z,6.55
2023-05-08T02:16:04.088Z,6.55
2023-05-08T02:18:32.267Z,6.56
2023-05-08T02:21:00.019Z,6.55
2023-05-08T02:23:27.623Z,6.55
2023-05-08T02:25:55.320Z,6.55
2023-05-08T02:28:22.980Z,6.54
2023-05-08T02:30:51.000Z,6.55
2023-05-08T02:33:18.621Z,6.55
2023-05-08T02:35:46.692Z,6.55
2023-05-08T02:38:14.287Z,6.54
2023-05-08T02:40:45.983Z,6.54
2023-05-08T02:43:13.300Z,6.55
2023-05-08T02:46:15.348Z,6.55
2023-05-08T02:48:58.327Z,6.55
2023-05-08T02:51:33.640Z,6.56
2023-05-08T02:54:11.700Z,6.57
2023-05-08T02:57:29.226Z,6.57
2023-05-08T03:00:12.937Z,6.57
2023-05-08T03:02:43.645Z,6.57
2023-05-08T03:05:15.663Z,6.58
2023-05-08T03:07:43.259Z,6.58
2023-05-08T03:10:15.982Z,6.58
2023-05-08T03:12:46.196Z,6.58
2023-05-08T03:15:23.762Z,6.59
2023-05-08T03:17:58.480Z,6.60
2023-05-08T03:20:26.540Z,6.61
2023-05-08T03:22:54.116Z,6.62
2023-05-08T03:25:21.766Z,6.65
2023-05-08T03:27:49.520Z,6.67
2023-05-08T03:30:17.433Z,6.70
2023-05-08T03:32:52.288Z,6.73
2023-05-08T03:35:20.019Z,6.76
2023-05-08T03:37:47.931Z,6.79
2023-05-08T03:40:15.529Z,6.81
2023-05-08T03:42:43.256Z,6.85
2023-05-08T03:45:11.318Z,6.88
2023-05-08T03:47:38.898Z,6.89
2023-05-08T03:50:08.296Z,6.91
2023-05-08T03:52:36.403Z,6.93
2023-05-08T03:55:04.345Z,6.96
2023-05-08T03:57:35.835Z,6.99
2023-05-08T04:00:05.881Z,7.02
2023-05-08T04:02:42.946Z,7.03
2023-05-08T04:05:41.223Z,7.05
2023-05-08T04:08:25.723Z,7.07
2023-05-08T04:11:17.166Z,7.09
2023-05-08T04:13:54.571Z,7.13
2023-05-08T04:16:27.377Z,7.15
2023-05-08T04:19:01.333Z,7.17
2023-05-08T04:21:31.139Z,7.21
2023-05-08T04:23:58.527Z,7.23
2023-05-08T04:26:26.554Z,7.26
2023-05-08T04:28:55.928Z,7.30
2023-05-08T04:31:23.809Z,7.36
2023-05-08T04:33:51.288Z,7.41
2023-05-08T04:36:18.777Z,7.44
2023-05-08T04:38:46.479Z,7.48
2023-05-08T04:41:14.808Z,7.51
2023-05-08T04:43:42.370Z,7.55
2023-05-08T04:46:09.714Z,7.60
2023-05-08T04:48:37.418Z,7.66
2023-05-08T04:51:05.085Z,7.73
2023-05-08T04:53:32.936Z,7.78
2023-05-08T04:56:01.531Z,7.82
2023-05-08T04:58:29.866Z,7.88
2023-05-08T05:00:57.441Z,7.94
2023-05-08T05:03:24.965Z,8.01
2023-05-08T05:05:58.569Z,8.11
2023-05-08T05:08:26.528Z,8.21
2023-05-08T05:10:54.486Z,8.33
2023-05-08T05:13:21.957Z,8.42
2023-05-08T05:15:51.166Z,8.49
2023-05-08T05:18:19.084Z,8.58
2023-05-08T05:20:46.568Z,8.69
2023-05-08T05:23:14.838Z,8.82
2023-05-08T05:25:42.322Z,8.96
2023-05-08T05:28:09.771Z,9.09
2023-05-08T05:30:37.104Z,9.21
2023-05-08T05:33:04.712Z,9.32
2023-05-08T05:35:33.300Z,9.43
2023-05-08T05:38:01.888Z,9.55
2023-05-08T05:40:30.150Z,9.72
2023-05-08T05:42:59.299Z,9.91
2023-05-08T05:45:26.926Z,10.11
2023-05-08T05:47:54.615Z,10.31
2023-05-08T05:50:23.162Z,10.53
2023-05-08T05:52:50.886Z,10.70
2023-05-08T05:55:18.379Z,10.88
2023-05-08T05:57:47.178Z,11.03
2023-05-08T06:00:16.171Z,11.11
2023-05-08T06:02:47.780Z,11.04
2023-05-08T06:05:16.290Z,11.05
2023-05-08T06:07:43.935Z,11.12
2023-05-08T06:10:11.465Z,11.17
2023-05-08T06:12:39.857Z,11.21
2023-05-08T06:15:09.089Z,11.27
2023-05-08T06:17:38.138Z,11.33
2023-05-08T06:20:06.698Z,11.39
2023-05-08T06:22:37.382Z,11.55
2023-05-08T06:25:06.772Z,11.72
2023-05-08T06:27:37.168Z,11.86
2023-05-08T06:30:07.999Z,12.02
2023-05-08T06:32:36.377Z,12.18
2023-05-08T06:35:04.280Z,12.31
2023-05-08T06:37:31.655Z,12.44
2023-05-08T06:40:10.920Z,12.63
2023-05-08T06:42:40.065Z,12.77
2023-05-08T06:45:09.067Z,12.77
2023-05-08T06:47:37.060Z,12.83
2023-05-08T06:50:04.954Z,12.97
2023-05-08T06:52:32.842Z,13.11
2023-05-08T06:55:00.245Z,13.26
2023-05-08T06:57:29.969Z,13.35
2023-05-08T06:59:57.384Z,13.40
2023-05-08T07:02:25.136Z,13.43
2023-05-08T07:04:52.576Z,13.43
2023-05-08T07:07:19.993Z,13.42
2023-05-08T07:09:47.303Z,13.40
2023-05-08T07:12:16.367Z,13.47
2023-05-08T07:14:43.758Z,13.49
2023-05-08T07:17:11.317Z,13.48
2023-05-08T07:19:38.822Z,13.53
2023-05-08T07:22:06.345Z,13.66
2023-05-08T07:24:34.002Z,13.77
2023-05-08T07:27:01.924Z,13.88
2023-05-08T07:29:29.454Z,13.96
2023-05-08T07:31:56.877Z,13.99
2023-05-08T07:34:24.509Z,14.05
2023-05-08T07:36:51.864Z,14.02
2023-05-08T07:39:19.264Z,13.92
2023-05-08T07:41:49.107Z,13.85
2023-05-08T07:44:17.428Z,13.78
2023-05-08T07:46:45.039Z,13.79
2023-05-08T07:49:12.742Z,13.72
2023-05-08T07:51:40.118Z,13.75
2023-05-08T07:54:07.532Z,13.78
2023-05-08T07:56:35.881Z,13.79
2023-05-08T07:59:03.229Z,13.86
2023-05-08T08:01:31.703Z,13.99
2023-05-08T08:03:59.229Z,14.02
2023-05-08T08:06:26.734Z,14.00
2023-05-08T08:08:54.271Z,13.93
2023-05-08T08:11:22.491Z,13.88
2023-05-08T08:13:50.174Z,13.89
2023-05-08T08:16:17.571Z,13.87
2023-05-08T08:18:45.535Z,13.83
2023-05-08T08:21:13.075Z,13.82
2023-05-08T08:23:40.709Z,13.89
2023-05-08T08:26:08.294Z,14.04
2023-05-08T08:28:36.038Z,14.21
2023-05-08T08:31:03.606Z,14.34
2023-05-08T08:33:32.169Z,14.54
2023-05-08T08:35:59.552Z,14.76
2023-05-08T08:38:27.418Z,14.93
2023-05-08T08:40:55.251Z,15.03
2023-05-08T08:43:22.904Z,15.02
2023-05-08T08:45:50.321Z,14.92
2023-05-08T08:48:17.693Z,14.80
2023-05-08T08:50:44.939Z,14.78
2023-05-08T08:53:27.400Z,14.74
2023-05-08T08:55:56.706Z,14.61
2023-05-08T08:58:32.301Z,14.53
2023-05-08T09:01:00.428Z,14.53
2023-05-08T09:03:28.083Z,14.64
2023-05-08T09:05:55.718Z,14.69
2023-05-08T09:08:24.009Z,14.64
2023-05-08T09:10:52.177Z,14.46
2023-05-08T09:13:20.009Z,14.31
2023-05-08T09:15:49.880Z,14.28
2023-05-08T09:18:17.526Z,14.36
2023-05-08T09:20:45.263Z,14.38
2023-05-08T09:23:14.389Z,14.42
2023-05-08T09:25:48.436Z,14.52
2023-05-08T09:28:17.281Z,14.58
2023-05-08T09:30:55.353Z,14.55
2023-05-08T09:33:25.163Z,14.51
2023-05-08T09:35:53.011Z,14.35
2023-05-08T09:38:34.941Z,14.21
2023-05-08T09:41:14.509Z,14.17
2023-05-08T09:43:43.687Z,14.20
2023-05-08T09:46:25.991Z,14.18
2023-05-08T09:48:57.999Z,14.16
2023-05-08T09:51:26.664Z,14.15
2023-05-08T09:53:54.893Z,14.09
2023-05-08T09:56:41.129Z,13.97
2023-05-08T09:59:29.448Z,13.97
2023-05-08T10:01:57.978Z,14.01
2023-05-08T10:04:33.804Z,14.01
2023-05-08T10:07:01.576Z,14.03
2023-05-08T10:09:39.309Z,14.07
2023-05-08T10:12:14.980Z,14.11
2023-05-08T10:14:46.820Z,14.05
2023-05-08T10:17:15.160Z,13.98
2023-05-08T10:19:44.428Z,13.93
2023-05-08T10:22:12.387Z,13.92
2023-05-08T10:24:40.744Z,13.87
2023-05-08T10:27:31.660Z,13.72
2023-05-08T10:30:02.736Z,13.60
2023-05-08T10:32:35.065Z,13.61
2023-05-08T10:35:02.854Z,13.64
2023-05-08T10:37:31.051Z,13.64
2023-05-08T10:39:58.820Z,13.64
2023-05-08T10:42:26.533Z,13.56
2023-05-08T10:44:54.347Z,13.54
2023-05-08T10:47:24.410Z,13.58
2023-05-08T10:50:04.524Z,13.63
2023-05-08T10:52:49.139Z,13.57
2023-05-08T10:55:32.561Z,13.47
2023-05-08T10:58:04.733Z,13.39
2023-05-08T11:00:57.179Z,13.35
2023-05-08T11:03:32.162Z,13.31
2023-05-08T11:06:00.997Z,13.25
2023-05-08T11:08:29.970Z,13.24
2023-05-08T11:11:02.210Z,13.22
2023-05-08T11:13:42.608Z,13.21
2023-05-08T11:16:10.769Z,13.23
2023-05-08T11:18:49.102Z,13.25
2023-05-08T11:21:22.625Z,13.31
2023-05-08T11:23:57.471Z,13.37
2023-05-08T11:26:39.696Z,13.43
2023-05-08T11:29:16.207Z,13.44
2023-05-08T11:31:50.671Z,13.45
2023-05-08T11:34:43.920Z,13.36
2023-05-08T11:37:12.218Z,13.24
2023-05-08T11:39:39.586Z,13.21
2023-05-08T11:42:26.502Z,13.20
2023-05-08T11:45:07.838Z,13.20
2023-05-08T11:47:40.131Z,13.18
2023-05-08T11:50:11.909Z,13.15
2023-05-08T11:52:40.729Z,13.14
2023-05-08T11:55:09.725Z,13.15
2023-05-08T11:57:37.604Z,13.11
2023-05-08T12:00:06.469Z,13.06
2023-05-08T12:02:38.018Z,13.04
2023-05-08T12:05:09.468Z,13.04
2023-05-08T12:07:46.563Z,13.03
2023-05-08T12:10:15.313Z,13.05
2023-05-08T12:12:43.962Z,13.08
2023-05-08T12:15:13.063Z,13.12
2023-05-08T12:17:41.174Z,13.11
2023-05-08T12:20:13.793Z,13.12
2023-05-08T12:22:41.859Z,13.17
2023-05-08T12:25:11.633Z,13.18
2023-05-08T12:27:39.739Z,13.16
2023-05-08T12:30:08.921Z,13.09
2023-05-08T12:32:38.777Z,13.03
2023-05-08T12:35:10.223Z,13.01
2023-05-08T12:37:37.826Z,12.96
2023-05-08T12:40:06.061Z,12.91
2023-05-08T12:42:52.970Z,12.90
2023-05-08T12:45:21.704Z,12.93
2023-05-08T12:47:49.556Z,12.96
2023-05-08T12:50:17.958Z,13.04
2023-05-08T12:52:45.713Z,13.13
2023-05-08T12:55:26.568Z,13.22
2023-05-08T12:58:09.165Z,13.30
2023-05-08T13:00:43.367Z,13.35
2023-05-08T13:03:29.586Z,13.40
2023-05-08T13:05:58.193Z,13.36
2023-05-08T13:08:30.556Z,13.32
2023-05-08T13:10:58.559Z,13.30
2023-05-08T13:13:28.218Z,13.31
2023-05-08T13:15:56.039Z,13.36
2023-05-08T13:18:26.169Z,13.45
2023-05-08T13:20:54.391Z,13.50
2023-05-08T13:23:22.705Z,13.51
2023-05-08T13:25:51.081Z,13.46
2023-05-08T13:28:19.177Z,13.36
2023-05-08T13:30:46.878Z,13.27
2023-05-08T13:33:14.730Z,13.20
2023-05-08T13:35:42.515Z,13.15
2023-05-08T13:38:10.817Z,13.13
2023-05-08T13:40:38.608Z,13.14
2023-05-08T13:43:06.475Z,13.17
2023-05-08T13:45:34.094Z,13.19
2023-05-08T13:48:02.014Z,13.20
2023-05-08T13:50:30.117Z,13.17
2023-05-08T13:52:57.634Z,13.12
2023-05-08T13:55:25.106Z,13.08
2023-05-08T13:57:52.912Z,13.07
2023-05-08T14:00:20.623Z,13.06
2023-05-08T14:02:50.782Z,13.08
2023-05-08T14:05:19.901Z,13.11
2023-05-08T14:07:47.312Z,13.14
2023-05-08T14:10:16.760Z,13.18
2023-05-08T14:12:44.707Z,13.20
2023-05-08T14:15:12.551Z,13.22
2023-05-08T14:17:41.990Z,13.21
2023-05-08T14:20:11.854Z,13.18
2023-05-08T14:22:39.910Z,13.15
2023-05-08T14:25:08.269Z,13.10
2023-05-08T14:27:36.700Z,13.06
2023-05-08T14:30:05.281Z,13.03
2023-05-08T14:32:33.267Z,13.02
2023-05-08T14:35:00.653Z,13.03
2023-05-08T14:37:28.068Z,13.05
2023-05-08T14:39:57.496Z,13.05
2023-05-08T14:42:25.767Z,13.02
2023-05-08T14:44:53.579Z,12.98
2023-05-08T14:47:23.118Z,12.94
2023-05-08T14:49:50.547Z,12.91
2023-05-08T14:52:18.116Z,12.87
2023-05-08T14:54:47.737Z,12.82
2023-05-08T14:57:15.927Z,12.77
2023-05-08T14:59:52.344Z,12.72
2023-05-08T15:02:23.707Z,12.67
2023-05-08T15:04:51.424Z,12.64
2023-05-08T15:07:19.319Z,12.62
2023-05-08T15:09:47.699Z,12.59
2023-05-08T15:12:15.770Z,12.56
2023-05-08T15:14:43.202Z,12.52
2023-05-08T15:17:11.043Z,12.49
2023-05-08T15:19:38.517Z,12.47
2023-05-08T15:22:06.111Z,12.45
2023-05-08T15:24:34.798Z,12.43
2023-05-08T15:27:02.249Z,12.41
2023-05-08T15:29:30.181Z,12.40
2023-05-08T15:31:58.181Z,12.39
2023-05-08T15:34:29.092Z,12.38
2023-05-08T15:36:59.794Z,12.38
2023-05-08T15:39:27.217Z,12.38
2023-05-08T15:41:54.717Z,12.38
2023-05-08T15:44:24.829Z,12.38
2023-05-08T15:46:54.142Z,12.38
2023-05-08T15:49:26.806Z,12.38
2023-05-08T15:51:54.697Z,12.37
2023-05-08T15:54:23.004Z,12.37
2023-05-08T15:56:50.576Z,12.36
2023-05-08T15:59:18.192Z,12.35
2023-05-08T16:01:46.599Z,12.34
2023-05-08T16:04:14.323Z,12.34
2023-05-08T16:06:42.750Z,12.33
2023-05-08T16:09:10.218Z,12.33
2023-05-08T16:11:38.089Z,12.32
2023-05-08T16:14:05.597Z,12.31
2023-05-08T16:16:34.115Z,12.27
2023-05-08T16:19:01.821Z,12.23
2023-05-08T16:21:29.462Z,12.18
2023-05-08T16:23:59.858Z,12.12
2023-05-08T16:26:27.739Z,12.08
2023-05-08T16:28:55.421Z,12.04
2023-05-08T16:31:22.963Z,11.99
2023-05-08T16:33:50.476Z,11.94
2023-05-08T16:36:18.007Z,11.89
2023-05-08T16:38:45.771Z,11.84
2023-05-08T16:41:13.808Z,11.78
2023-05-08T16:43:41.593Z,11.73
2023-05-08T16:46:09.598Z,11.68
2023-05-08T16:48:37.118Z,11.62
2023-05-08T16:51:04.658Z,11.55
2023-05-08T16:53:32.789Z,11.47
2023-05-08T16:56:00.386Z,11.40
2023-05-08T16:58:28.037Z,11.31
2023-05-08T17:00:55.638Z,11.24
2023-05-08T17:03:23.872Z,11.16
2023-05-08T17:05:51.762Z,11.09
2023-05-08T17:08:19.882Z,11.00
2023-05-08T17:10:47.561Z,10.93
2023-05-08T17:13:15.308Z,10.84
2023-05-08T17:15:42.934Z,10.75
2023-05-08T17:18:10.901Z,10.66
2023-05-08T17:20:42.232Z,10.57
2023-05-08T17:23:09.974Z,10.47
2023-05-08T17:25:37.839Z,10.38
2023-05-08T17:28:05.416Z,10.29
2023-05-08T17:30:33.812Z,10.21
2023-05-08T17:33:03.383Z,10.11
2023-05-08T17:35:31.574Z,10.02
2023-05-08T17:37:59.094Z,9.93
2023-05-08T17:40:28.589Z,9.84
2023-05-08T17:42:56.365Z,9.75
2023-05-08T17:45:23.703Z,9.66
2023-05-08T17:47:51.519Z,9.56
2023-05-08T17:50:19.196Z,9.48
2023-05-08T17:52:46.822Z,9.39
2023-05-08T17:55:14.642Z,9.28
2023-05-08T17:57:42.401Z,9.19
2023-05-08T18:00:11.072Z,9.10
2023-05-08T18:02:39.941Z,9.00
2023-05-08T18:05:08.679Z,8.91
2023-05-08T18:07:36.723Z,8.81
2023-05-08T18:10:04.784Z,8.74
2023-05-08T18:12:33.620Z,8.65
2023-05-08T18:15:04.991Z,8.57
2023-05-08T18:17:32.908Z,8.49
2023-05-08T18:20:03.800Z,8.41
2023-05-08T18:22:31.684Z,8.34
2023-05-08T18:25:01.956Z,8.26
2023-05-08T18:27:33.185Z,8.19
2023-05-08T18:30:00.786Z,8.13
2023-05-08T18:32:28.987Z,8.06
2023-05-08T18:34:57.154Z,7.99
2023-05-08T18:37:24.784Z,7.91
2023-05-08T18:39:52.560Z,7.85
2023-05-08T18:42:20.118Z,7.77
2023-05-08T18:44:47.748Z,7.71
2023-05-08T18:47:15.430Z,7.64
2023-05-08T18:49:43.744Z,7.57
2023-05-08T18:52:11.637Z,7.50
2023-05-08T18:54:38.959Z,7.44
2023-05-08T18:57:06.875Z,7.37
2023-05-08T18:59:34.332Z,7.31
2023-05-08T19:02:02.167Z,7.24
2023-05-08T19:04:30.200Z,7.19
2023-05-08T19:06:58.334Z,7.12
2023-05-08T19:09:26.400Z,7.06
2023-05-08T19:11:54.138Z,6.99
2023-05-08T19:14:21.817Z,6.94
2023-05-08T19:16:49.364Z,6.89
2023-05-08T19:19:16.996Z,6.83
2023-05-08T19:21:44.996Z,6.78
2023-05-08T19:24:14.038Z,6.72
2023-05-08T19:26:41.815Z,6.66
2023-05-08T19:29:09.496Z,6.62
2023-05-08T19:31:37.097Z,6.57
2023-05-08T19:34:05.147Z,6.53
2023-05-08T19:36:33.296Z,6.50
2023-05-08T19:39:02.106Z,6.45
2023-05-08T19:41:29.949Z,6.42
2023-05-08T19:43:57.642Z,6.37
2023-05-08T19:46:25.246Z,6.33
2023-05-08T19:48:52.830Z,6.28
2023-05-08T19:51:20.448Z,6.24
2023-05-08T19:53:47.881Z,6.18
2023-05-08T19:56:15.355Z,6.14
2023-05-08T19:58:42.690Z,6.09
2023-05-08T20:01:10.200Z,6.05
2023-05-08T20:03:38.239Z,6.01
2023-05-08T20:06:06.300Z,5.97
2023-05-08T20:08:34.465Z,5.94
2023-05-08T20:11:03.800Z,5.91
2023-05-08T20:13:31.828Z,5.87
2023-05-08T20:15:59.564Z,5.83
2023-05-08T20:18:27.333Z,5.80
2023-05-08T20:20:54.984Z,5.76
2023-05-08T20:23:22.597Z,5.72
2023-05-08T20:25:50.337Z,5.67
2023-05-08T20:28:22.081Z,5.63
2023-05-08T20:30:49.783Z,5.58
2023-05-08T20:33:18.666Z,5.53
2023-05-08T20:35:46.589Z,5.49
2023-05-08T20:38:15.723Z,5.46
2023-05-08T20:40:43.460Z,5.43
2023-05-08T20:43:11.272Z,5.41
2023-05-08T20:45:38.892Z,5.38
2023-05-08T20:48:06.762Z,5.35
2023-05-08T20:50:34.603Z,5.32
2023-05-08T20:53:02.418Z,5.29
2023-05-08T20:55:30.339Z,5.25
2023-05-08T20:57:59.177Z,5.21
2023-05-08T21:00:27.146Z,5.17
2023-05-08T21:02:54.955Z,5.12
2023-05-08T21:05:22.779Z,5.06
2023-05-08T21:07:52.316Z,5.00
2023-05-08T21:10:20.524Z,4.95
2023-05-08T21:12:48.409Z,4.90
2023-05-08T21:15:17.794Z,4.85
2023-05-08T21:17:46.088Z,4.81
2023-05-08T21:20:14.190Z,4.75
2023-05-08T21:22:42.630Z,4.71
2023-05-08T21:25:16.880Z,4.65
2023-05-08T21:27:44.653Z,4.60
2023-05-08T21:30:15.397Z,4.55
2023-05-08T21:32:44.269Z,4.50
2023-05-08T21:35:12.291Z,4.45
2023-05-08T21:37:40.653Z,4.40
2023-05-08T21:40:09.691Z,4.34
2023-05-08T21:42:38.907Z,4.30
2023-05-08T21:45:07.439Z,4.26
2023-05-08T21:47:35.649Z,4.23
2023-05-08T21:50:03.714Z,4.19
2023-05-08T21:52:31.652Z,4.14
2023-05-08T21:54:59.463Z,4.10
2023-05-08T21:57:27.566Z,4.07
2023-05-08T21:59:55.454Z,4.04
2023-05-08T22:02:23.253Z,4.04
2023-05-08T22:04:51.085Z,4.02
2023-05-08T22:07:22.706Z,4.02
2023-05-08T22:09:50.501Z,4.02
2023-05-08T22:12:18.430Z,4.02
2023-05-08T22:14:46.525Z,4.04
2023-05-08T22:17:14.567Z,4.07
2023-05-08T22:19:42.622Z,4.09
2023-05-08T22:22:10.358Z,4.11
2023-05-08T22:24:38.263Z,4.13
2023-05-08T22:27:06.163Z,4.15
2023-05-08T22:29:33.871Z,4.19
2023-05-08T22:32:03.323Z,4.21
2023-05-08T22:34:31.385Z,4.25
2023-05-08T22:36:59.060Z,4.28
2023-05-08T22:39:26.819Z,4.31
2023-05-08T22:41:54.672Z,4.34
2023-05-08T22:44:22.475Z,4.37
2023-05-08T22:46:50.264Z,4.39
2023-05-08T22:49:18.132Z,4.43
2023-05-08T22:51:45.779Z,4.46
2023-05-08T22:54:14.655Z,4.48
2023-05-08T22:56:42.436Z,4.51
2023-05-08T22:59:10.238Z,4.53
2023-05-08T23:01:38.084Z,4.55
2023-05-08T23:04:06.423Z,4.55
2023-05-08T23:06:34.942Z,4.56
2023-05-08T23:09:04.054Z,4.56
2023-05-08T23:11:31.959Z,4.56
2023-05-08T23:13:59.849Z,4.56
2023-05-08T23:16:27.544Z,4.55
2023-05-08T23:18:55.617Z,4.55
2023-05-08T23:21:23.613Z,4.55
2023-05-08T23:23:51.582Z,4.55
2023-05-08T23:26:19.322Z,4.56
2023-05-08T23:28:47.101Z,4.56
2023-05-08T23:31:16.616Z,4.55
2023-05-08T23:33:44.358Z,4.54
2023-05-08T23:36:12.000Z,4.53
2023-05-08T23:38:39.622Z,4.52
2023-05-08T23:41:07.755Z,4.52
2023-05-08T23:43:36.080Z,4.52
2023-05-08T23:46:03.954Z,4.54
2023-05-08T23:48:32.725Z,4.57
2023-05-08T23:51:00.564Z,4.64
2023-05-08T23:53:28.919Z,4.68
2023-05-08T23:55:57.533Z,4.71
2023-05-08T23:58:26.140Z,4.75
